METAR Data
IDs: Format: Raw Decoded Include TAF

Data at: 0723 UTC 03 Aug 2021

KHHR 030653Z AUTO 25004KT 10SM CLR 20/14 A2997 RMK AO2 SLP148 T02000139
KHHR 030553Z AUTO 25003KT 10SM CLR 20/14 A2997 RMK AO2 SLP147 T02000139 10256 20200 51009
KHHR 030453Z 00000KT 10SM CLR 21/14 A2997 RMK AO2 SLP147 T02060144
KHHR 030353Z 25005KT 10SM CLR 21/14 A2996 RMK AO2 SLP143 T02060144
KHHR 030253Z 25008KT 10SM CLR 21/16 A2994 RMK AO2 SLP138 T02110156 56004
KHHR 030153Z 27011KT 10SM CLR 23/14 A2994 RMK AO2 SLP138 T02280139
KHHR 030053Z 26010KT 10SM CLR 24/13 A2995 RMK AO2 SLP139 T02440133
KHHR 022353Z 26010KT 10SM CLR 26/13 A2995 RMK AO2 SLP142 T02560128 10289 20250 57013
KHHR 022253Z 27009KT 10SM CLR 26/15 A2997 RMK AO2 SLP146 T02560150
KHHR 022153Z 29009KT 10SM CLR 25/14 A2998 RMK AO2 SLP152 T02500144
KHHR 022053Z 28009KT 10SM CLR 27/14 A2999 RMK AO2 SLP155 T02670139 56013
KHHR 021953Z 28006KT 10SM CLR 28/14 A3000 RMK AO2 SLP158 T02830144
KHHR 021853Z 25007KT 220V300 10SM CLR 28/16 A3002 RMK AO2 SLP163 T02780161
KHHR 021753Z VRB03KT 10SM CLR 28/14 A3003 RMK AO2 SLP168 T02780139 10278 20178 58010
KHHR 021653Z 00000KT 10SM CLR 25/14 A3005 RMK AO2 SLP173 T02500144
KHHR 021553Z 15003KT 10SM CLR 22/15 A3006 RMK AO2 SLP178 T02220150
KHHR 021453Z 00000KT 10SM CLR 21/16 A3006 RMK AO2 SLP178 T02060156 51015
KHHR 021353Z 00000KT 10SM CLR 18/15 A3005 RMK AO2 SLP174 T01830150
KHHR 021253Z COR 00000KT 10SM CLR 18/15 A3003 RMK AO2 SLP168 T01780150
KHHR 021153Z AUTO 00000KT 10SM CLR 18/15 A3001 RMK AO2 SLP162 T01780150 10189 20178 55000
KHHR 021053Z AUTO 00000KT 10SM CLR 18/14 A3001 RMK AO2 SLP163 T01780144
KHHR 020953Z AUTO 00000KT 10SM CLR 18/14 A3001 RMK AO2 SLP161 T01780144
KHHR 020853Z AUTO 23003KT 10SM CLR 18/14 A3001 RMK AO2 SLP162 T01830144 58005
KHHR 020753Z AUTO 24004KT 10SM CLR 18/14 A3002 RMK AO2 SLP165 T01830144 402610172
KHHR 020653Z AUTO 23004KT 10SM CLR 18/14 A3003 RMK AO2 SLP167 T01830144
KHHR 020553Z AUTO 22004KT 10SM CLR 19/14 A3003 RMK AO2 SLP167 T01890144 10244 20189 51013
KHHR 020453Z AUTO 24004KT 10SM CLR 19/14 A3002 RMK AO2 SLP164 T01940139
KHHR 020353Z 25008KT 10SM CLR 20/14 A3000 RMK AO2 SLP158 T02000139
KHHR 020253Z 25007KT 10SM CLR 21/13 A2999 RMK AO2 SLP154 T02110133 56005
KHHR 020153Z 27010KT 10SM CLR 22/13 A2999 RMK AO2 SLP154 T02220133
KHHR 020053Z 27012KT 10SM CLR 24/13 A3000 RMK AO2 SLP157 T02390128
KHHR 012353Z 28010KT 10SM CLR 24/13 A3001 RMK AO2 SLP159 T02390133 10261 20233 58008
KHHR 012321Z 27009KT 10SM CLR 24/14 A3001 RMK AO2 T02390139
KHHR 012253Z COR 26011G16KT 10SM CLR 24/14 A3002 RMK AO2 SLP163 T02390144
KHHR 012153Z 27010KT 10SM CLR 24/15 A3002 RMK AO2 SLP165 T02390150
KHHR 012053Z 25011KT 10SM CLR 24/16 A3003 RMK AO2 SLP167 T02390156 58009
KHHR 011953Z 24009KT 10SM CLR 24/14 A3004 RMK AO2 SLP171 T02440144